Time;durP1;ratioP1;P1;durP2;ratioP2;P2;SDS_P1;SDS_P2;PMS_P1;PMS_P2;Temp;Humidity;BMP_temperature;BMP_pressure;BME280_temperature;BME280_humidity;BME280_pressure;Samples;Min_cycle;Max_cycle;Signal;HPM_P1;HPM_P2
2022/02/10 00:21:04;;;;;;;5.43;4.82;;;8.30;99.90;;;;;;4994680;28;20175;-77
2022/02/10 00:24:04;;;;;;;8.35;6.70;;;8.20;99.90;;;;;;5015854;28;20181;-77
2022/02/10 00:34:44;;;;;;;9.30;7.00;;;8.20;99.90;;;;;;4990579;28;20321;-77
2022/02/10 00:37:12;;;;;;;6.85;4.95;;;8.10;99.90;;;;;;4998087;28;20214;-76
2022/02/10 00:42:08;;;;;;;10.45;6.60;;;8.00;99.90;;;;;;5006740;28;20186;-76
2022/02/10 00:44:33;;;;;;;9.98;6.63;;;8.00;99.90;;;;;;4987396;28;20305;-77
2022/02/10 00:46:59;;;;;;;8.00;5.83;;;8.00;99.90;;;;;;5006860;28;20285;-77
2022/02/10 00:49:25;;;;;;;7.10;6.00;;;7.90;99.90;;;;;;4985492;28;20259;-76
2022/02/10 00:51:51;;;;;;;6.80;4.73;;;8.00;99.90;;;;;;5002831;28;20182;-77
2022/02/10 00:54:25;;;;;;;9.60;5.70;;;7.90;99.90;;;;;;5006670;28;20185;-78
2022/02/10 00:56:52;;;;;;;9.55;6.55;;;7.90;99.90;;;;;;5003470;28;20605;-78
2022/02/10 01:13:28;;;;;;;8.13;5.43;;;7.70;99.90;;;;;;5011760;28;20261;-77
2022/02/10 01:29:42;;;;;;;7.38;5.63;;;7.60;99.90;;;;;;5005950;28;20179;-76
2022/02/10 01:32:09;;;;;;;6.63;5.80;;;7.60;99.90;;;;;;4994527;28;20186;-77
2022/02/10 01:34:40;;;;;;;8.68;6.15;;;7.60;99.90;;;;;;5008836;28;20181;-76
2022/02/10 01:37:06;;;;;;;7.25;5.85;;;7.60;99.90;;;;;;5005427;28;20230;-76
2022/02/10 01:39:36;;;;;;;6.70;6.00;;;7.60;99.90;;;;;;4988354;28;20171;-76
2022/02/10 02:03:50;;;;;;;6.22;4.20;;;7.50;99.90;;;;;;5005773;28;20170;-77
2022/02/10 02:06:51;;;;;;;9.90;4.50;;;7.50;99.90;;;;;;5009036;28;20209;-77
2022/02/10 02:09:11;;;;;;;4.88;4.35;;;7.50;99.90;;;;;;5004970;28;20200;-77
2022/02/10 02:11:39;;;;;;;6.15;4.90;;;7.50;99.90;;;;;;5020581;28;20198;-76
2022/02/10 02:14:06;;;;;;;7.47;4.68;;;7.50;99.90;;;;;;5007095;28;20584;-77
2022/02/10 02:16:32;;;;;;;8.52;5.13;;;7.40;99.90;;;;;;5005933;28;20191;-76
2022/02/10 02:18:58;;;;;;;5.15;4.18;;;7.40;99.90;;;;;;5006343;28;20201;-77
2022/02/10 02:21:24;;;;;;;9.30;5.73;;;7.40;99.90;;;;;;4987748;28;20179;-77
2022/02/10 02:23:50;;;;;;;7.53;5.00;;;7.40;99.90;;;;;;4987447;28;20182;-77
2022/02/10 02:26:22;;;;;;;5.57;4.70;;;7.40;99.90;;;;;;5004886;28;20696;-76
2022/02/10 02:28:52;;;;;;;5.40;4.53;;;7.40;99.90;;;;;;4997839;28;20585;-76
2022/02/10 02:31:22;;;;;;;7.82;5.05;;;7.40;99.90;;;;;;5007862;28;20179;-77
2022/02/10 03:04:22;;;;;;;5.90;5.00;;;7.30;99.90;;;;;;5005768;28;20522;-78
2022/02/10 03:06:50;;;;;;;5.63;3.85;;;7.30;99.90;;;;;;4993836;28;20194;-77
2022/02/10 03:09:23;;;;;;;5.75;4.15;;;7.20;99.90;;;;;;4998062;28;20590;-77
2022/02/10 03:11:49;;;;;;;5.00;4.07;;;7.30;99.90;;;;;;4975895;28;20211;-77
2022/02/10 03:14:19;;;;;;;5.72;5.13;;;7.20;99.90;;;;;;5003658;28;20171;-76
2022/02/10 04:00:52;;;;;;;7.18;4.05;;;6.90;99.90;;;;;;4996283;28;20640;-77
2022/02/10 04:13:56;;;;;;;4.80;3.42;;;6.90;99.90;;;;;;5001422;28;20232;-76
2022/02/10 04:16:30;;;;;;;4.75;3.67;;;6.90;99.90;;;;;;5025588;28;20555;-76
2022/02/10 04:25:06;;;;;;;6.07;4.50;;;6.90;99.90;;;;;;5008629;28;20634;-76
2022/02/10 04:27:10;;;;;;;9.07;5.00;;;6.80;99.90;;;;;;5017495;28;20206;-76
2022/02/10 04:30:02;;;;;;;5.72;4.75;;;6.80;99.90;;;;;;4990449;28;20191;-77
2022/02/10 04:42:01;;;;;;;4.90;3.60;;;6.80;99.90;;;;;;4995282;28;20174;-77
2022/02/10 04:43:46;;;;;;;5.85;4.30;;;6.70;99.90;;;;;;5009037;28;20202;-76
2022/02/10 04:57:16;;;;;;;5.10;3.92;;;6.80;99.90;;;;;;5009086;28;20201;-77
2022/02/10 05:05:22;;;;;;;6.30;3.80;;;6.80;99.90;;;;;;5006455;28;20208;-77
2022/02/10 05:16:16;;;;;;;5.80;4.13;;;6.80;99.90;;;;;;4999099;28;20214;-77
2022/02/10 05:34:36;;;;;;;5.72;3.53;;;6.80;99.90;;;;;;5007882;28;20186;-77
2022/02/10 05:37:03;;;;;;;5.22;3.55;;;6.80;99.90;;;;;;5005112;28;20238;-77
2022/02/10 05:39:31;;;;;;;5.55;3.72;;;6.80;99.90;;;;;;5001646;28;20181;-77
2022/02/10 05:45:48;;;;;;;9.07;3.50;;;6.80;99.90;;;;;;4952567;29;20278;-77
2022/02/10 05:48:10;;;;;;;5.70;3.78;;;6.80;99.90;;;;;;4943355;29;20207;-77
2022/02/10 05:56:20;;;;;;;5.85;3.70;;;6.90;99.90;;;;;;4989388;28;20648;-76
2022/02/10 06:01:51;;;;;;;6.93;3.90;;;7.00;99.90;;;;;;5013817;28;20296;-76
2022/02/10 06:47:01;;;;;;;4.25;3.75;;;8.40;99.90;;;;;;4982981;28;20666;-77
2022/02/10 07:04:35;;;;;;;7.40;3.65;;;8.80;99.90;;;;;;4999860;28;20238;-77
2022/02/10 07:12:43;;;;;;;5.50;4.03;;;8.90;99.90;;;;;;5000443;28;20179;-76
2022/02/10 07:15:33;;;;;;;7.90;3.72;;;8.90;99.90;;;;;;4999728;28;20189;-76
2022/02/10 07:56:07;;;;;;;10.83;3.40;;;9.40;99.90;;;;;;4982992;28;20214;-78
2022/02/10 08:26:32;;;;;;;5.70;3.88;;;9.90;99.90;;;;;;5006068;28;20253;-78
2022/02/10 08:54:30;;;;;;;9.27;6.22;;;10.10;99.90;;;;;;5002421;28;20221;-78
2022/02/10 08:56:52;;;;;;;9.80;7.00;;;10.10;99.90;;;;;;5006078;28;20205;-78
2022/02/10 09:02:22;;;;;;;8.88;6.75;;;10.20;99.90;;;;;;5005791;28;20189;-77
2022/02/10 09:07:47;;;;;;;8.40;6.50;;;10.30;99.90;;;;;;5004956;28;20197;-78
2022/02/10 09:10:29;;;;;;;9.05;6.45;;;10.40;99.90;;;;;;5003893;28;20217;-77
2022/02/10 09:13:23;;;;;;;9.00;5.65;;;10.50;99.90;;;;;;5002609;28;20183;-78
2022/02/10 09:24:47;;;;;;;13.32;7.35;;;10.90;99.90;;;;;;5009412;28;20268;-78
2022/02/10 09:27:56;;;;;;;9.07;6.60;;;11.00;99.90;;;;;;5004398;28;21027;-78
2022/02/10 09:57:00;;;;;;;10.18;6.05;;;12.60;99.90;;;;;;5001250;28;20198;-78
2022/02/10 10:02:17;;;;;;;8.10;6.93;;;12.80;99.90;;;;;;4994894;28;20185;-78
2022/02/10 10:05:10;;;;;;;9.00;6.40;;;12.90;99.90;;;;;;5005806;28;20592;-77
2022/02/10 10:10:59;;;;;;;7.25;6.10;;;12.90;99.90;;;;;;4974370;28;20206;-78
2022/02/10 10:19:25;;;;;;;10.23;6.53;;;12.90;99.90;;;;;;5000061;28;20217;-78
2022/02/10 10:22:23;;;;;;;9.45;7.43;;;12.90;99.90;;;;;;4967804;28;20174;-78
2022/02/10 10:25:34;;;;;;;10.48;6.68;;;12.90;99.90;;;;;;4997922;28;20212;-78
2022/02/10 10:50:54;;;;;;;8.00;6.05;;;12.90;99.90;;;;;;5002419;28;20183;-79
2022/02/10 10:58:37;;;;;;;7.53;5.90;;;12.70;99.90;;;;;;5007694;28;20202;-79
2022/02/10 11:03:41;;;;;;;6.22;5.18;;;12.70;99.90;;;;;;5011577;28;20682;-79
2022/02/10 11:38:42;;;;;;;10.63;7.60;;;12.20;99.90;;;;;;4985521;28;20206;-78
2022/02/10 11:44:03;;;;;;;7.47;5.57;;;12.20;99.90;;;;;;4946593;29;20208;-77
2022/02/10 11:47:27;;;;;;;9.57;6.78;;;12.10;99.90;;;;;;4995067;28;20225;-79
2022/02/10 14:18:07;;;;;;;4.28;3.85;;;11.00;99.90;;;;;;5004119;28;20224;-77
2022/02/10 14:26:33;;;;;;;2.72;2.45;;;11.00;99.90;;;;;;5000801;28;20205;-77
2022/02/10 14:28:31;;;;;;;5.75;3.92;;;11.00;99.90;;;;;;4996459;28;20191;-78
2022/02/10 14:31:02;;;;;;;4.00;3.57;;;11.00;99.90;;;;;;5001103;28;20184;-77
2022/02/10 14:33:31;;;;;;;4.18;3.63;;;11.00;99.90;;;;;;4985320;28;20186;-78
2022/02/10 14:36:04;;;;;;;4.15;3.33;;;11.00;99.90;;;;;;5001272;28;20205;-79
2022/02/10 15:11:33;;;;;;;1.83;1.02;;;10.50;99.90;;;;;;5002270;28;20186;-77
2022/02/10 15:16:40;;;;;;;2.30;1.00;;;10.50;99.90;;;;;;5004678;28;20281;-79
2022/02/10 15:32:19;;;;;;;1.98;1.65;;;10.50;99.90;;;;;;4968744;28;20195;-78
2022/02/10 15:36:06;;;;;;;2.90;2.35;;;10.50;99.90;;;;;;5004373;28;20631;-77
2022/02/10 15:49:51;;;;;;;3.67;2.17;;;10.40;99.90;;;;;;5004469;28;20183;-78
2022/02/10 15:52:41;;;;;;;6.43;2.35;;;10.40;99.90;;;;;;5002443;28;20186;-78
2022/02/10 16:14:50;;;;;;;4.13;1.77;;;10.40;99.90;;;;;;4976444;28;20210;-79
2022/02/10 16:17:12;;;;;;;2.45;1.25;;;10.40;99.90;;;;;;5002678;28;20202;-78
2022/02/10 16:19:40;;;;;;;2.92;1.30;;;10.40;99.90;;;;;;5012288;28;20247;-79
2022/02/10 16:22:36;;;;;;;4.88;1.55;;;10.40;99.90;;;;;;5010203;28;20772;-79
2022/02/10 16:25:05;;;;;;;1.90;1.42;;;10.40;99.90;;;;;;5005242;28;20187;-80
2022/02/10 16:27:33;;;;;;;2.50;1.85;;;10.40;99.90;;;;;;5005700;28;21672;-79
2022/02/10 16:30:08;;;;;;;2.67;1.73;;;10.40;99.90;;;;;;5008800;28;20197;-79
2022/02/10 16:32:34;;;;;;;2.67;1.63;;;10.40;99.90;;;;;;5007130;28;20182;-79
2022/02/10 16:35:03;;;;;;;3.03;2.10;;;10.40;99.90;;;;;;4997107;28;20210;-79
2022/02/10 16:37:29;;;;;;;3.33;2.38;;;10.40;99.90;;;;;;5003352;28;20202;-78
2022/02/10 16:39:55;;;;;;;4.35;2.65;;;10.40;99.90;;;;;;5002499;28;20530;-79
2022/02/10 16:42:21;;;;;;;7.17;2.90;;;10.40;99.90;;;;;;5001783;28;20181;-77
2022/02/10 16:44:51;;;;;;;3.43;2.53;;;10.40;99.90;;;;;;4988613;28;20190;-77
2022/02/10 16:47:17;;;;;;;4.82;3.42;;;10.40;99.90;;;;;;5007228;28;21184;-77
2022/02/10 16:49:49;;;;;;;5.03;3.72;;;10.40;99.90;;;;;;5005582;28;20174;-77
2022/02/10 16:52:21;;;;;;;6.88;4.00;;;10.40;99.90;;;;;;5002501;28;20593;-78
2022/02/10 16:54:50;;;;;;;4.90;3.90;;;10.40;99.90;;;;;;5001660;28;20550;-77
2022/02/10 16:57:37;;;;;;;5.50;4.30;;;10.40;99.90;;;;;;5004887;28;20293;-77
2022/02/10 17:00:12;;;;;;;6.63;4.57;;;10.40;99.90;;;;;;4996343;28;20189;-78
2022/02/10 17:05:34;;;;;;;4.75;4.22;;;10.40;99.90;;;;;;5012286;28;20200;-76
2022/02/10 17:19:30;;;;;;;7.55;6.15;;;10.30;99.90;;;;;;5002555;28;20206;-78
2022/02/10 17:27:27;;;;;;;6.95;6.20;;;10.20;99.90;;;;;;4970471;28;20206;-76
2022/02/10 17:45:53;;;;;;;7.43;5.75;;;10.10;99.90;;;;;;5002611;28;20258;-75
2022/02/10 17:53:48;;;;;;;4.75;4.20;;;10.00;99.90;;;;;;5013481;28;20178;-76
2022/02/10 17:56:14;;;;;;;6.95;6.25;;;10.00;99.90;;;;;;4994583;28;20556;-76
2022/02/10 17:58:40;;;;;;;5.93;4.88;;;10.00;99.90;;;;;;4986103;28;20210;-75
2022/02/10 18:01:11;;;;;;;7.33;5.50;;;10.00;99.90;;;;;;5002887;28;20170;-75
2022/02/10 18:03:37;;;;;;;7.18;6.47;;;9.90;99.90;;;;;;5004976;28;20257;-75
2022/02/10 18:08:38;;;;;;;7.15;6.45;;;9.90;99.90;;;;;;4998723;28;20229;-76
2022/02/10 18:13:55;;;;;;;5.53;5.00;;;9.90;99.90;;;;;;5009991;28;20236;-76
2022/02/10 18:16:30;;;;;;;5.35;4.22;;;9.90;99.90;;;;;;4998904;28;20203;-77
2022/02/10 18:19:12;;;;;;;9.57;7.22;;;9.90;99.90;;;;;;5001176;28;20615;-77
2022/02/10 18:30:01;;;;;;;12.40;8.80;;;9.60;99.90;;;;;;5000234;28;20267;-77
2022/02/10 19:07:32;;;;;;;13.45;10.55;;;9.40;99.90;;;;;;4998066;28;20282;-77
2022/02/10 19:09:59;;;;;;;13.20;10.77;;;9.40;99.90;;;;;;5020045;28;20619;-77
2022/02/10 19:12:28;;;;;;;11.57;9.30;;;9.40;99.90;;;;;;5002831;28;20244;-77
2022/02/10 19:14:57;;;;;;;10.50;8.10;;;9.40;99.90;;;;;;4989526;28;20183;-78
2022/02/10 19:17:26;;;;;;;11.82;8.43;;;9.40;99.90;;;;;;5003628;28;20201;-78
2022/02/10 19:19:52;;;;;;;10.65;9.52;;;9.40;99.90;;;;;;5003099;28;20226;-78
2022/02/10 19:22:19;;;;;;;13.07;9.43;;;9.40;99.90;;;;;;5002898;28;20210;-78
2022/02/10 19:24:45;;;;;;;10.52;9.32;;;9.40;99.90;;;;;;5007080;28;20553;-77
2022/02/10 19:27:13;;;;;;;10.90;8.15;;;9.40;99.90;;;;;;5003326;28;20204;-77
2022/02/10 19:29:39;;;;;;;8.90;7.63;;;9.30;99.90;;;;;;5006581;28;20186;-77
2022/02/10 19:32:06;;;;;;;8.67;6.10;;;9.30;99.90;;;;;;5010430;28;20190;-79
2022/02/10 19:34:35;;;;;;;7.78;6.15;;;9.30;99.90;;;;;;5006905;28;21224;-77
2022/02/10 19:37:01;;;;;;;7.93;5.20;;;9.20;99.90;;;;;;5004376;28;20199;-77
2022/02/10 19:39:27;;;;;;;5.13;4.55;;;9.10;99.90;;;;;;5008943;28;20212;-77
2022/02/10 19:41:54;;;;;;;3.92;3.53;;;9.10;99.90;;;;;;5008789;28;20253;-78
2022/02/10 19:44:20;;;;;;;6.50;3.83;;;9.00;99.90;;;;;;5004219;28;20183;-78
2022/02/10 19:46:46;;;;;;;5.35;4.22;;;8.90;99.90;;;;;;5006328;28;20613;-78
2022/02/10 19:49:19;;;;;;;6.13;3.30;;;8.90;99.90;;;;;;5006949;28;20266;-78
2022/02/10 19:51:46;;;;;;;5.28;3.30;;;8.80;99.90;;;;;;5006728;28;20265;-78
2022/02/10 19:54:15;;;;;;;4.15;2.90;;;8.80;99.90;;;;;;5005150;28;20608;-78
2022/02/10 19:56:41;;;;;;;4.03;2.95;;;8.70;99.90;;;;;;4991115;28;20218;-78
2022/02/10 19:59:08;;;;;;;6.43;3.90;;;8.60;99.90;;;;;;5013330;28;20722;-78
2022/02/10 20:01:34;;;;;;;5.25;3.40;;;8.60;99.90;;;;;;4993706;28;20569;-78
2022/02/10 20:04:05;;;;;;;4.70;2.40;;;8.50;99.90;;;;;;4995484;28;20583;-78
2022/02/10 20:06:30;;;;;;;2.13;1.48;;;8.50;99.90;;;;;;4987517;28;20602;-78
2022/02/10 20:08:56;;;;;;;1.37;0.73;;;8.30;99.90;;;;;;5004507;28;20224;-78
2022/02/10 20:11:22;;;;;;;1.43;0.80;;;8.10;99.90;;;;;;5005059;28;20635;-78
2022/02/10 20:13:48;;;;;;;1.83;0.70;;;7.90;99.90;;;;;;5003330;28;20705;-78
2022/02/10 20:16:13;;;;;;;1.40;0.70;;;7.80;99.90;;;;;;5007702;28;20214;-78
2022/02/10 20:18:39;;;;;;;1.57;0.63;;;7.70;99.90;;;;;;5012758;28;20206;-78
2022/02/10 20:21:08;;;;;;;1.67;0.70;;;7.50;99.90;;;;;;4999232;28;20572;-78
2022/02/10 20:23:34;;;;;;;1.13;0.60;;;7.50;99.90;;;;;;5009370;28;20190;-78
2022/02/10 20:26:03;;;;;;;1.10;0.60;;;7.40;99.90;;;;;;4991093;28;20194;-77
2022/02/10 20:28:29;;;;;;;1.88;0.75;;;7.30;99.90;;;;;;4993925;28;20190;-77
2022/02/10 20:31:01;;;;;;;1.67;0.50;;;7.30;99.90;;;;;;5003900;28;20553;-78
2022/02/10 20:33:29;;;;;;;1.70;0.80;;;7.30;99.90;;;;;;5002211;28;21095;-78
2022/02/10 20:35:58;;;;;;;1.55;0.70;;;7.20;99.90;;;;;;5004222;28;20199;-77
2022/02/10 20:38:24;;;;;;;2.08;0.65;;;7.20;99.90;;;;;;4997885;28;20206;-78
2022/02/10 20:41:01;;;;;;;1.80;0.80;;;7.20;99.90;;;;;;4987356;28;20194;-78
2022/02/10 20:43:27;;;;;;;2.10;0.95;;;7.10;99.90;;;;;;4975948;28;20763;-78
2022/02/10 20:45:57;;;;;;;2.38;0.90;;;7.10;99.90;;;;;;4987401;28;20213;-79
2022/02/10 20:48:24;;;;;;;4.57;0.80;;;7.10;99.90;;;;;;5003244;28;20647;-80
2022/02/10 20:50:54;;;;;;;2.00;0.90;;;7.00;99.90;;;;;;5004196;28;20612;-79
2022/02/10 20:53:23;;;;;;;2.70;1.30;;;7.00;99.90;;;;;;5003434;28;20203;-80
2022/02/10 20:55:49;;;;;;;1.83;1.00;;;7.00;99.90;;;;;;5003720;28;20202;-77
2022/02/10 20:58:19;;;;;;;2.77;1.50;;;7.00;99.90;;;;;;4991127;28;20201;-79
2022/02/10 21:00:44;;;;;;;2.60;1.30;;;7.00;99.90;;;;;;5000262;28;20269;-77
2022/02/10 21:03:10;;;;;;;3.83;1.00;;;7.00;99.90;;;;;;5003902;28;20266;-78
2022/02/10 21:05:40;;;;;;;1.50;1.10;;;7.00;99.90;;;;;;4986288;28;20264;-77
2022/02/10 21:10:50;;;;;;;1.98;1.00;;;7.10;99.90;;;;;;4985145;28;20202;-77
2022/02/10 21:13:16;;;;;;;1.60;0.90;;;7.00;99.90;;;;;;4979557;28;20179;-78
2022/02/10 21:15:45;;;;;;;2.27;1.00;;;7.00;99.90;;;;;;5016080;28;20281;-78
2022/02/10 21:18:13;;;;;;;2.15;0.95;;;7.00;99.90;;;;;;5001745;28;20668;-78
2022/02/10 21:20:40;;;;;;;3.45;1.52;;;6.90;99.90;;;;;;4994125;28;20563;-78
2022/02/10 21:25:42;;;;;;;1.50;1.10;;;6.80;99.90;;;;;;5001272;28;20182;-78
2022/02/10 21:28:32;;;;;;;1.50;0.90;;;6.80;99.90;;;;;;5003896;28;20181;-77
2022/02/10 21:30:58;;;;;;;3.20;1.15;;;6.80;99.90;;;;;;4989245;28;20196;-77
2022/02/10 21:33:42;;;;;;;2.30;0.90;;;6.80;99.90;;;;;;4994517;28;20182;-78
2022/02/10 21:39:18;;;;;;;1.30;0.73;;;6.70;99.90;;;;;;5004280;28;20209;-77
2022/02/10 22:18:54;;;;;;;4.38;0.90;;;6.20;99.90;;;;;;5009222;28;20213;-78
2022/02/10 22:21:28;;;;;;;3.05;0.90;;;6.20;99.90;;;;;;5001527;28;20539;-78
2022/02/10 22:23:55;;;;;;;3.65;1.30;;;6.20;99.90;;;;;;5013085;28;20179;-78
2022/02/10 22:26:26;;;;;;;1.38;0.70;;;6.20;99.90;;;;;;5006366;28;20603;-78
2022/02/10 22:32:15;;;;;;;1.95;0.90;;;6.20;99.90;;;;;;4983685;28;20269;-79
2022/02/10 22:34:24;;;;;;;2.53;1.33;;;6.20;99.90;;;;;;4997964;28;20199;-78
2022/02/10 22:36:57;;;;;;;3.10;1.40;;;6.20;99.90;;;;;;4998134;28;20203;-78
2022/02/10 22:39:23;;;;;;;4.20;1.27;;;6.30;99.90;;;;;;4995745;28;20232;-78
2022/02/10 22:41:52;;;;;;;1.98;0.80;;;6.30;99.90;;;;;;4986010;28;20643;-78
2022/02/10 22:44:18;;;;;;;1.90;1.20;;;6.30;99.90;;;;;;4982903;28;20175;-78
2022/02/10 22:46:45;;;;;;;2.47;1.10;;;6.30;99.90;;;;;;4993253;28;20687;-78
2022/02/10 22:49:11;;;;;;;2.55;1.00;;;6.30;99.90;;;;;;5004930;28;20650;-78
2022/02/10 22:51:38;;;;;;;3.47;1.23;;;6.30;99.90;;;;;;4996368;28;20277;-78
2022/02/10 22:54:05;;;;;;;1.73;0.90;;;6.30;99.90;;;;;;4984174;28;20191;-78
2022/02/10 22:56:32;;;;;;;1.30;0.82;;;6.40;99.90;;;;;;5001514;28;20244;-78
2022/02/10 22:59:05;;;;;;;2.25;1.30;;;6.30;99.90;;;;;;4992765;28;20684;-78
2022/02/10 23:01:31;;;;;;;1.33;0.90;;;6.30;99.90;;;;;;5000509;28;20605;-78
2022/02/10 23:03:57;;;;;;;1.42;1.20;;;6.40;99.90;;;;;;4999808;28;20273;-78
2022/02/10 23:06:23;;;;;;;4.72;2.95;;;6.40;99.90;;;;;;5002590;28;20202;-78
2022/02/10 23:08:49;;;;;;;3.08;1.85;;;6.40;99.90;;;;;;5000762;28;20183;-78
2022/02/10 23:11:17;;;;;;;1.90;0.90;;;6.30;99.90;;;;;;5002395;28;20185;-78
2022/02/10 23:13:45;;;;;;;4.22;1.10;;;6.30;99.90;;;;;;5000694;28;20189;-78
2022/02/10 23:16:14;;;;;;;2.10;1.15;;;6.30;99.90;;;;;;4985354;28;20286;-78
2022/02/10 23:18:41;;;;;;;1.90;1.08;;;6.30;99.90;;;;;;4998817;28;20214;-78
2022/02/10 23:21:10;;;;;;;1.50;0.80;;;6.30;99.90;;;;;;4993743;28;20535;-78
2022/02/10 23:23:38;;;;;;;1.50;0.82;;;6.30;99.90;;;;;;4999773;28;20241;-78
2022/02/10 23:26:06;;;;;;;3.60;1.10;;;6.30;99.90;;;;;;5003539;28;20603;-78
2022/02/10 23:28:38;;;;;;;1.35;1.00;;;6.30;99.90;;;;;;4982451;28;20186;-78
2022/02/10 23:31:06;;;;;;;1.85;1.10;;;6.30;99.90;;;;;;5002238;28;20273;-78
2022/02/10 23:33:36;;;;;;;1.25;0.82;;;6.30;99.90;;;;;;5000826;28;20183;-78
2022/02/10 23:44:10;;;;;;;1.50;0.90;;;6.40;99.90;;;;;;5002125;28;20171;-78
2022/02/10 23:46:36;;;;;;;1.50;0.80;;;6.40;99.90;;;;;;4981918;28;20242;-78
2022/02/10 23:49:02;;;;;;;1.40;0.82;;;6.30;99.90;;;;;;4999337;28;20187;-78
2022/02/10 23:51:34;;;;;;;1.70;0.70;;;6.30;99.90;;;;;;5002983;28;20210;-78
2022/02/10 23:54:00;;;;;;;1.55;0.90;;;6.30;99.90;;;;;;4999688;28;20209;-78
2022/02/10 23:56:32;;;;;;;3.38;1.00;;;6.30;99.90;;;;;;5000213;28;20679;-78
2022/02/10 23:59:07;;;;;;;3.83;1.20;;;6.30;99.90;;;;;;4986166;28;20211;-77
